createdAt,value
2019-02-11T00:01:43.138Z,4.30
2019-02-11T00:04:12.787Z,4.30
2019-02-11T00:06:42.498Z,4.40
2019-02-11T00:09:12.230Z,4.40
2019-02-11T00:11:41.874Z,4.40
2019-02-11T00:14:11.513Z,4.40
2019-02-11T00:16:41.174Z,4.40
2019-02-11T00:22:31.609Z,4.40
2019-02-11T00:25:01.230Z,4.40
2019-02-11T00:27:31.418Z,4.40
2019-02-11T00:30:01.109Z,4.40
2019-02-11T00:32:30.766Z,4.50
2019-02-11T00:35:00.454Z,4.60
2019-02-11T00:37:30.114Z,4.70
2019-02-11T00:39:59.755Z,4.70
2019-02-11T00:42:29.457Z,4.70
2019-02-11T00:44:59.097Z,4.80
2019-02-11T00:47:28.846Z,4.80
2019-02-11T00:49:58.529Z,4.90
2019-02-11T00:52:28.206Z,4.90
2019-02-11T00:54:57.880Z,5.00
2019-02-11T00:57:27.609Z,5.00
2019-02-11T00:59:57.362Z,4.90
2019-02-11T01:02:27.033Z,4.90
2019-02-11T01:04:56.669Z,4.90
2019-02-11T01:07:26.386Z,5.00
2019-02-11T01:09:56.082Z,5.00
2019-02-11T01:12:25.789Z,5.00
2019-02-11T01:14:55.548Z,5.00
2019-02-11T01:17:25.282Z,5.10
2019-02-11T01:19:54.958Z,5.20
2019-02-11T01:22:24.661Z,5.20
2019-02-11T01:24:54.380Z,5.30
2019-02-11T01:27:24.023Z,5.30
2019-02-11T01:29:53.650Z,5.30
2019-02-11T01:32:23.373Z,5.30
2019-02-11T01:34:53.106Z,5.20
2019-02-11T01:37:22.790Z,5.20
2019-02-11T01:39:52.463Z,5.20
2019-02-11T01:42:22.111Z,5.10
2019-02-11T01:44:51.840Z,5.20
2019-02-11T01:47:21.522Z,5.20
2019-02-11T01:49:51.197Z,5.20
2019-02-11T01:52:21.350Z,5.20
2019-02-11T01:54:50.990Z,5.20
2019-02-11T01:57:20.691Z,5.20
2019-02-11T01:59:50.406Z,5.10
2019-02-11T02:02:20.515Z,5.20
2019-02-11T02:04:50.210Z,5.20
2019-02-11T02:07:19.862Z,5.30
2019-02-11T02:09:49.557Z,5.20
2019-02-11T02:12:19.268Z,5.20
2019-02-11T02:14:48.942Z,5.10
2019-02-11T02:17:19.043Z,5.10
2019-02-11T02:19:48.791Z,5.10
2019-02-11T02:22:18.486Z,5.00
2019-02-11T02:24:51.333Z,4.90
2019-02-11T02:27:21.012Z,4.90
2019-02-11T02:29:50.694Z,4.90
2019-02-11T02:32:20.350Z,4.90
2019-02-11T02:34:49.990Z,4.90
2019-02-11T02:37:19.659Z,4.80
2019-02-11T02:39:49.406Z,4.80
2019-02-11T02:42:19.174Z,4.80
2019-02-11T02:44:48.837Z,4.80
2019-02-11T02:47:18.590Z,4.70
2019-02-11T02:49:48.266Z,4.70
2019-02-11T02:52:17.902Z,4.70
2019-02-11T02:54:47.629Z,4.70
2019-02-11T02:57:17.307Z,4.60
2019-02-11T02:59:47.498Z,4.60
2019-02-11T03:02:17.138Z,4.60
2019-02-11T03:04:46.842Z,4.60
2019-02-11T03:07:16.492Z,4.60
2019-02-11T03:09:46.144Z,4.70
2019-02-11T03:12:15.850Z,4.70
2019-02-11T03:14:45.531Z,4.80
2019-02-11T03:17:15.206Z,4.70
2019-02-11T03:19:44.913Z,4.70
2019-02-11T03:22:14.551Z,4.70
2019-02-11T03:24:44.598Z,4.70
2019-02-11T03:27:14.609Z,4.60
2019-02-11T03:29:44.286Z,4.60
2019-02-11T03:32:14.061Z,4.60
2019-02-11T03:34:43.728Z,4.70
2019-02-11T03:37:13.418Z,4.60
2019-02-11T03:39:43.114Z,4.60
2019-02-11T03:42:12.766Z,4.70
2019-02-11T03:44:42.408Z,4.60
2019-02-11T03:47:12.573Z,4.60
2019-02-11T03:49:42.210Z,4.70
2019-02-11T03:52:11.893Z,4.70
2019-02-11T03:54:41.949Z,4.70
2019-02-11T03:57:11.608Z,4.70
2019-02-11T03:59:41.320Z,4.70
2019-02-11T04:02:10.983Z,4.70
2019-02-11T04:04:40.718Z,4.70
2019-02-11T04:07:10.362Z,4.70
2019-02-11T04:09:40.034Z,4.70
2019-02-11T04:12:09.797Z,4.70
2019-02-11T04:14:39.494Z,4.70
2019-02-11T04:17:09.222Z,4.70
2019-02-11T04:19:38.905Z,4.60
2019-02-11T04:22:09.755Z,4.60
2019-02-11T04:24:39.494Z,4.60
2019-02-11T04:27:09.167Z,4.60
2019-02-11T04:29:38.873Z,4.70
2019-02-11T04:32:08.610Z,4.70
2019-02-11T04:34:38.332Z,4.80
2019-02-11T04:37:08.303Z,4.80
2019-02-11T04:39:38.012Z,4.80
2019-02-11T04:42:07.644Z,4.80
2019-02-11T04:44:37.350Z,4.80
2019-02-11T04:47:06.980Z,4.80
2019-02-11T04:49:36.646Z,4.80
2019-02-11T04:52:06.301Z,4.90
2019-02-11T04:54:36.324Z,4.90
2019-02-11T04:57:05.974Z,4.90
2019-02-11T04:59:35.702Z,4.90
2019-02-11T05:02:05.342Z,5.00
2019-02-11T05:04:34.991Z,5.00
2019-02-11T05:07:04.759Z,5.00
2019-02-11T05:09:34.441Z,5.00
2019-02-11T05:12:04.078Z,5.00
2019-02-11T05:14:43.224Z,5.00
2019-02-11T05:17:05.390Z,5.00
2019-02-11T05:19:35.043Z,5.00
2019-02-11T05:22:04.739Z,5.00
2019-02-11T05:24:34.465Z,5.00
2019-02-11T05:27:04.112Z,5.00
2019-02-11T05:29:33.790Z,5.00
2019-02-11T05:32:03.487Z,5.00
2019-02-11T05:34:33.129Z,5.00
2019-02-11T05:37:02.759Z,5.10
2019-02-11T05:39:32.496Z,5.00
2019-02-11T05:42:02.126Z,5.00
2019-02-11T05:44:31.802Z,4.90
2019-02-11T05:47:01.526Z,4.90
2019-02-11T05:49:31.205Z,4.90
2019-02-11T05:52:00.944Z,4.90
2019-02-11T05:54:30.625Z,5.00
2019-02-11T05:57:00.319Z,5.00
2019-02-11T05:59:30.073Z,5.00
2019-02-11T06:01:59.831Z,5.00
2019-02-11T06:04:29.528Z,5.00
2019-02-11T06:06:59.212Z,5.00
2019-02-11T06:09:28.929Z,5.00
2019-02-11T06:11:58.569Z,5.00
2019-02-11T06:14:28.289Z,5.00
2019-02-11T06:16:58.044Z,5.10
2019-02-11T06:19:27.722Z,5.20
2019-02-11T06:21:57.408Z,5.20
2019-02-11T06:24:27.281Z,5.20
2019-02-11T06:26:56.944Z,5.20
2019-02-11T06:29:26.630Z,5.20
2019-02-11T06:31:56.378Z,5.30
2019-02-11T06:34:26.057Z,5.30
2019-02-11T06:36:55.833Z,5.20
2019-02-11T06:39:25.551Z,5.20
2019-02-11T06:41:55.279Z,5.30
2019-02-11T06:44:24.978Z,5.20
2019-02-11T06:46:54.658Z,5.20
2019-02-11T06:49:25.361Z,5.10
2019-02-11T06:51:57.681Z,5.20
2019-02-11T06:54:27.377Z,5.20
2019-02-11T06:56:57.055Z,5.20
2019-02-11T06:59:26.773Z,5.20
2019-02-11T07:01:56.454Z,5.30
2019-02-11T07:04:26.980Z,5.30
2019-02-11T07:06:56.651Z,5.30
2019-02-11T07:09:26.383Z,5.30
2019-02-11T07:11:56.088Z,5.40
2019-02-11T07:14:25.847Z,5.50
2019-02-11T07:16:55.543Z,5.70
2019-02-11T07:19:25.264Z,5.80
2019-02-11T07:21:54.919Z,5.90
2019-02-11T07:24:25.257Z,6.00
2019-02-11T07:26:54.957Z,6.10
2019-02-11T07:29:24.583Z,6.10
2019-02-11T07:31:54.298Z,6.10
2019-02-11T07:34:24.002Z,6.20
2019-02-11T07:36:53.682Z,6.30
2019-02-11T07:39:25.458Z,6.30
2019-02-11T07:42:12.351Z,6.40
2019-02-11T07:44:48.838Z,6.60
2019-02-11T07:47:18.514Z,6.80
2019-02-11T07:49:48.163Z,6.90
2019-02-11T07:52:17.863Z,7.00
2019-02-11T07:54:47.602Z,7.10
2019-02-11T07:57:17.280Z,7.20
2019-02-11T07:59:49.190Z,7.30
2019-02-11T08:02:20.319Z,7.30
2019-02-11T08:04:50.032Z,7.30
2019-02-11T08:07:19.710Z,7.40
2019-02-11T08:09:49.410Z,7.30
2019-02-11T08:12:19.046Z,7.30
2019-02-11T08:14:48.744Z,7.30
2019-02-11T08:17:18.418Z,7.30
2019-02-11T08:19:49.038Z,7.40
2019-02-11T08:22:18.746Z,7.40
2019-02-11T08:24:49.017Z,7.40
2019-02-11T08:27:18.758Z,7.40
2019-02-11T08:29:48.438Z,7.40
2019-02-11T08:32:18.141Z,7.50
2019-02-11T08:34:47.843Z,7.60
2019-02-11T08:37:17.591Z,7.60
2019-02-11T08:39:47.271Z,7.80
2019-02-11T08:42:16.950Z,7.80
2019-02-11T08:44:46.701Z,7.90
2019-02-11T08:47:16.708Z,7.90
2019-02-11T08:49:46.430Z,8.00
2019-02-11T08:52:16.127Z,8.00
2019-02-11T08:54:45.836Z,8.00
2019-02-11T08:57:15.519Z,8.00
2019-02-11T08:59:45.180Z,8.00
2019-02-11T09:02:14.810Z,8.00
2019-02-11T09:04:44.599Z,7.90
2019-02-11T09:07:14.739Z,7.90
2019-02-11T09:09:44.395Z,8.00
2019-02-11T09:12:14.078Z,8.00
2019-02-11T09:14:43.773Z,8.10
2019-02-11T09:17:13.416Z,8.20
2019-02-11T09:19:43.086Z,8.30
2019-02-11T09:22:13.097Z,8.30
2019-02-11T09:24:42.778Z,8.50
2019-02-11T09:27:12.422Z,8.60
2019-02-11T09:29:42.078Z,8.70
2019-02-11T09:32:11.739Z,8.60
2019-02-11T09:34:41.518Z,8.60
2019-02-11T09:37:11.218Z,8.60
2019-02-11T09:39:40.850Z,8.60
2019-02-11T09:42:10.544Z,8.60
2019-02-11T09:44:40.282Z,8.70
2019-02-11T09:47:09.965Z,8.80
2019-02-11T09:49:39.683Z,8.80
2019-02-11T09:52:09.368Z,8.90
2019-02-11T09:54:38.998Z,8.90
2019-02-11T09:57:11.449Z,8.90
2019-02-11T09:59:41.077Z,8.90
2019-02-11T10:02:10.754Z,8.80
2019-02-11T10:04:40.448Z,8.80
2019-02-11T10:07:10.142Z,8.90
2019-02-11T10:09:39.802Z,9.00
2019-02-11T10:12:11.525Z,9.00
2019-02-11T10:14:41.203Z,9.10
2019-02-11T10:17:10.869Z,9.20
2019-02-11T10:19:40.532Z,9.30
2019-02-11T10:22:10.222Z,9.20
2019-02-11T10:24:39.963Z,9.20
2019-02-11T10:27:09.690Z,9.00
2019-02-11T10:29:39.375Z,9.10
2019-02-11T10:32:09.211Z,9.10
2019-02-11T10:34:38.890Z,9.00
2019-02-11T10:37:08.566Z,9.00
2019-02-11T10:39:39.049Z,9.00
2019-02-11T10:42:09.387Z,9.10
2019-02-11T10:44:39.031Z,9.00
2019-02-11T10:47:08.971Z,9.00
2019-02-11T10:49:38.686Z,9.00
2019-02-11T10:52:08.307Z,9.00
2019-02-11T10:54:37.998Z,8.90
2019-02-11T10:57:07.686Z,8.90
2019-02-11T10:59:37.377Z,8.80
2019-02-11T11:02:07.506Z,8.70
2019-02-11T11:04:37.190Z,8.70
2019-02-11T11:07:06.854Z,8.80
2019-02-11T11:09:36.553Z,8.80
2019-02-11T11:12:07.648Z,9.00
2019-02-11T11:14:37.329Z,9.00
2019-02-11T11:17:08.658Z,9.00
2019-02-11T11:19:38.889Z,9.10
2019-02-11T11:22:08.643Z,9.20
2019-02-11T11:24:38.321Z,9.20
2019-02-11T11:27:08.046Z,9.20
2019-02-11T11:29:37.704Z,9.30
2019-02-11T11:32:07.510Z,9.30
2019-02-11T11:34:37.170Z,9.30
2019-02-11T11:37:06.880Z,9.30
2019-02-11T11:39:36.574Z,9.30
2019-02-11T11:42:06.222Z,9.20
2019-02-11T11:44:35.893Z,9.20
2019-02-11T11:47:05.614Z,9.20
2019-02-11T11:49:35.330Z,9.40
2019-02-11T11:52:06.003Z,9.50
2019-02-11T11:54:35.745Z,9.50
2019-02-11T11:57:05.539Z,9.60
2019-02-11T11:59:35.166Z,9.70
2019-02-11T12:02:04.929Z,9.70
2019-02-11T12:04:34.610Z,9.80
2019-02-11T12:07:04.423Z,9.70
2019-02-11T12:09:34.083Z,9.70
2019-02-11T12:12:03.864Z,9.60
2019-02-11T12:14:33.555Z,9.70
2019-02-11T12:17:03.899Z,9.70
2019-02-11T12:19:33.640Z,9.60
2019-02-11T12:22:03.480Z,9.50
2019-02-11T12:24:33.140Z,9.40
2019-02-11T12:27:02.876Z,9.20
2019-02-11T12:29:32.597Z,9.10
2019-02-11T12:32:02.226Z,9.00
2019-02-11T12:34:31.976Z,8.90
2019-02-11T12:37:01.610Z,8.70
2019-02-11T12:39:31.296Z,8.60
2019-02-11T12:42:00.953Z,8.50
2019-02-11T12:44:30.683Z,8.30
2019-02-11T12:47:13.051Z,8.20
2019-02-11T12:49:31.799Z,8.10
2019-02-11T12:52:01.488Z,8.10
2019-02-11T12:54:31.213Z,8.00
2019-02-11T12:57:00.854Z,7.90
2019-02-11T12:59:30.689Z,7.80
2019-02-11T13:02:00.398Z,7.60
2019-02-11T13:04:30.101Z,7.50
2019-02-11T13:06:59.828Z,7.30
2019-02-11T13:09:31.230Z,7.20
2019-02-11T13:12:00.984Z,7.10
2019-02-11T13:14:31.367Z,7.00
2019-02-11T13:17:14.152Z,7.00
2019-02-11T13:19:32.403Z,6.90
2019-02-11T13:22:02.121Z,6.70
2019-02-11T13:24:31.768Z,6.60
2019-02-11T13:27:01.439Z,6.50
2019-02-11T13:29:31.240Z,6.50
2019-02-11T13:32:00.947Z,6.30
2019-02-11T13:34:30.670Z,6.20
2019-02-11T13:37:00.408Z,6.00
2019-02-11T13:39:31.145Z,5.80
2019-02-11T13:42:00.904Z,5.60
2019-02-11T13:44:30.607Z,5.60
2019-02-11T13:47:00.326Z,5.40
2019-02-11T13:49:32.818Z,5.40
2019-02-11T13:52:02.563Z,5.30
2019-02-11T13:54:32.675Z,5.20
2019-02-11T13:57:02.361Z,5.20
2019-02-11T13:59:32.025Z,5.10
2019-02-11T14:02:01.685Z,5.10
2019-02-11T14:04:31.949Z,5.10
2019-02-11T14:07:01.638Z,5.10
2019-02-11T14:09:31.357Z,5.10
2019-02-11T14:12:01.046Z,5.20
2019-02-11T14:14:31.614Z,5.20
2019-02-11T14:17:01.255Z,5.20
2019-02-11T14:19:31.031Z,5.20
2019-02-11T14:22:00.705Z,5.20
2019-02-11T14:24:30.411Z,5.20
2019-02-11T14:27:00.066Z,5.30
2019-02-11T14:29:29.851Z,5.20
2019-02-11T14:31:59.565Z,5.20
2019-02-11T14:34:29.241Z,5.10
2019-02-11T14:36:58.916Z,5.10
2019-02-11T14:39:28.631Z,5.00
2019-02-11T14:41:58.293Z,5.10
2019-02-11T14:44:27.988Z,5.10
2019-02-11T14:46:57.694Z,5.10
2019-02-11T14:49:27.343Z,5.10
2019-02-11T14:51:57.008Z,5.10
2019-02-11T14:54:26.647Z,5.10
2019-02-11T14:56:56.342Z,5.00
2019-02-11T14:59:26.055Z,5.00
2019-02-11T15:01:55.782Z,4.90
2019-02-11T15:04:25.456Z,4.80
2019-02-11T15:06:55.139Z,4.80
2019-02-11T15:09:24.918Z,4.80
2019-02-11T15:11:55.099Z,4.70
2019-02-11T15:14:24.875Z,4.80
2019-02-11T15:16:54.603Z,4.80
2019-02-11T15:19:24.266Z,4.80
2019-02-11T15:21:53.958Z,4.80
2019-02-11T15:24:23.702Z,4.80
2019-02-11T15:26:53.414Z,4.70
2019-02-11T15:29:23.609Z,4.70
2019-02-11T15:31:53.314Z,4.70
2019-02-11T15:34:23.026Z,4.70
2019-02-11T15:36:52.779Z,4.70
2019-02-11T15:39:22.474Z,4.70
2019-02-11T15:41:52.171Z,4.70
2019-02-11T15:44:21.887Z,4.70
2019-02-11T15:46:51.550Z,4.70
2019-02-11T15:49:21.270Z,4.70
2019-02-11T15:51:50.936Z,4.70
2019-02-11T15:54:20.591Z,4.70
2019-02-11T15:56:50.338Z,4.70
2019-02-11T15:59:20.027Z,4.70
2019-02-11T16:01:50.439Z,4.70
2019-02-11T16:04:20.154Z,4.70
2019-02-11T16:06:49.856Z,4.70
2019-02-11T16:09:19.690Z,4.70
2019-02-11T16:11:49.442Z,4.70
2019-02-11T16:14:19.111Z,4.70
2019-02-11T16:16:48.816Z,4.70
2019-02-11T16:19:18.567Z,4.60
2019-02-11T16:21:48.326Z,4.60
2019-02-11T16:24:18.070Z,4.50
2019-02-11T16:26:47.808Z,4.50
2019-02-11T16:29:17.543Z,4.40
2019-02-11T16:31:47.267Z,4.40
2019-02-11T16:34:16.928Z,4.30
2019-02-11T16:36:46.635Z,4.30
2019-02-11T16:39:16.351Z,4.30
2019-02-11T16:41:45.990Z,4.30
2019-02-11T16:44:15.698Z,4.10
2019-02-11T16:46:45.429Z,4.00
2019-02-11T16:49:15.123Z,3.90
2019-02-11T16:51:44.801Z,3.90
2019-02-11T16:54:14.476Z,3.90
2019-02-11T16:56:44.119Z,3.90
2019-02-11T16:59:13.835Z,3.90
2019-02-11T17:01:43.570Z,4.00
2019-02-11T17:04:13.800Z,4.00
2019-02-11T17:06:43.499Z,4.10
2019-02-11T17:09:13.183Z,4.10
2019-02-11T17:11:42.811Z,4.20
2019-02-11T17:14:12.501Z,4.20
2019-02-11T17:16:42.401Z,4.30
2019-02-11T17:19:16.413Z,4.30
2019-02-11T17:21:46.080Z,4.40
2019-02-11T17:24:15.873Z,4.40
2019-02-11T17:26:45.530Z,4.50
2019-02-11T17:29:15.209Z,4.50
2019-02-11T17:31:44.938Z,4.50
2019-02-11T17:34:14.577Z,4.50
2019-02-11T17:36:44.267Z,4.50
2019-02-11T17:39:13.906Z,4.50
2019-02-11T17:41:43.551Z,4.50
2019-02-11T17:44:13.426Z,4.50
2019-02-11T17:46:43.080Z,4.50
2019-02-11T17:49:17.868Z,4.50
2019-02-11T17:51:44.083Z,4.50
2019-02-11T17:54:14.087Z,4.50
2019-02-11T17:56:43.727Z,4.60
2019-02-11T17:59:13.350Z,4.60
2019-02-11T18:01:43.148Z,4.60
2019-02-11T18:04:12.790Z,4.60
2019-02-11T18:06:42.466Z,4.60
2019-02-11T18:09:12.174Z,4.70
2019-02-11T18:11:41.825Z,4.70
2019-02-11T18:14:11.589Z,4.70
2019-02-11T18:16:42.256Z,4.70
2019-02-11T18:19:11.959Z,4.70
2019-02-11T18:21:41.640Z,4.60
2019-02-11T18:24:11.372Z,4.70
2019-02-11T18:26:41.056Z,4.60
2019-02-11T18:29:10.775Z,4.60
2019-02-11T18:31:40.458Z,4.60
2019-02-11T18:34:10.221Z,4.50
2019-02-11T18:36:39.931Z,4.50
2019-02-11T18:39:10.378Z,4.50
2019-02-11T18:41:42.010Z,4.50
2019-02-11T18:44:11.694Z,4.50
2019-02-11T18:46:41.365Z,4.50
2019-02-11T18:49:15.153Z,4.40
2019-02-11T18:51:44.789Z,4.30
2019-02-11T18:54:14.432Z,4.40
2019-02-11T18:56:44.137Z,4.30
2019-02-11T18:59:13.803Z,4.40
2019-02-11T19:01:43.466Z,4.40
2019-02-11T19:04:13.117Z,4.50
2019-02-11T19:06:42.798Z,4.50
2019-02-11T19:09:16.092Z,4.50
2019-02-11T19:11:45.795Z,4.60
2019-02-11T19:14:15.430Z,4.70
2019-02-11T19:16:45.128Z,4.70
2019-02-11T19:19:14.775Z,4.70
2019-02-11T19:21:44.421Z,4.70
2019-02-11T19:24:14.099Z,4.70
2019-02-11T19:26:44.242Z,4.80
2019-02-11T19:29:13.914Z,4.80
2019-02-11T19:31:43.571Z,4.80
2019-02-11T19:34:13.301Z,4.80
2019-02-11T19:36:42.973Z,4.80
2019-02-11T19:39:12.626Z,4.80
2019-02-11T19:41:43.146Z,4.80
2019-02-11T19:44:12.930Z,4.80
2019-02-11T19:46:42.670Z,4.80
2019-02-11T19:49:12.423Z,4.80
2019-02-11T19:51:42.124Z,4.80
2019-02-11T19:54:11.802Z,4.80
2019-02-11T19:56:41.527Z,4.80
2019-02-11T19:59:11.166Z,4.80
2019-02-11T20:01:40.830Z,4.80
2019-02-11T20:04:10.477Z,4.80
2019-02-11T20:06:40.191Z,4.80
2019-02-11T20:09:10.052Z,4.80
2019-02-11T20:11:40.010Z,4.80
2019-02-11T20:14:09.670Z,4.80
2019-02-11T20:16:39.375Z,4.70
2019-02-11T20:19:09.109Z,4.70
2019-02-11T20:21:38.787Z,4.70
2019-02-11T20:24:08.551Z,4.60
2019-02-11T20:26:38.202Z,4.60
2019-02-11T20:29:07.889Z,4.60
2019-02-11T20:31:37.664Z,4.60
2019-02-11T20:34:07.298Z,4.60
2019-02-11T20:36:36.930Z,4.60
2019-02-11T20:39:07.595Z,4.50
2019-02-11T20:41:37.306Z,4.40
2019-02-11T20:44:07.598Z,4.40
2019-02-11T20:46:37.246Z,4.30
2019-02-11T20:49:06.967Z,4.30
2019-02-11T20:51:36.658Z,4.20
2019-02-11T20:54:06.427Z,4.10
2019-02-11T20:56:36.159Z,4.00
2019-02-11T20:59:05.799Z,3.90
2019-02-11T21:01:35.458Z,3.90
2019-02-11T21:04:05.123Z,3.80
2019-02-11T21:06:34.835Z,3.80
2019-02-11T21:09:05.986Z,3.80
2019-02-11T21:11:35.638Z,3.70
2019-02-11T21:14:05.305Z,3.70
2019-02-11T21:16:34.960Z,3.70
2019-02-11T21:19:04.614Z,3.70
2019-02-11T21:21:34.527Z,3.70
2019-02-11T21:24:04.348Z,3.70
2019-02-11T21:26:34.020Z,3.70
2019-02-11T21:29:05.502Z,3.60
2019-02-11T21:31:36.923Z,3.60
2019-02-11T21:34:06.897Z,3.60
2019-02-11T21:36:36.534Z,3.60
2019-02-11T21:39:08.023Z,3.60
2019-02-11T21:41:38.133Z,3.50
2019-02-11T21:44:07.805Z,3.50
2019-02-11T21:46:37.446Z,3.40
2019-02-11T21:49:07.163Z,3.40
2019-02-11T21:51:36.818Z,3.40
2019-02-11T21:54:06.587Z,3.40
2019-02-11T21:56:36.307Z,3.30
2019-02-11T21:59:05.922Z,3.30
2019-02-11T22:01:35.620Z,3.30
2019-02-11T22:04:05.308Z,3.30
2019-02-11T22:06:35.474Z,3.30
2019-02-11T22:09:09.311Z,3.30
2019-02-11T22:11:42.295Z,3.40
2019-02-11T22:14:11.938Z,3.40
2019-02-11T22:16:42.423Z,3.40
2019-02-11T22:19:12.177Z,3.30
2019-02-11T22:21:41.849Z,3.40
2019-02-11T22:24:11.536Z,3.40
2019-02-11T22:26:41.201Z,3.40
2019-02-11T22:29:10.838Z,3.40
2019-02-11T22:31:40.603Z,3.40
2019-02-11T22:34:10.242Z,3.40
2019-02-11T22:36:39.871Z,3.40
2019-02-11T22:39:10.174Z,3.40
2019-02-11T22:41:39.913Z,3.40
2019-02-11T22:44:09.609Z,3.40
2019-02-11T22:46:39.321Z,3.40
2019-02-11T22:49:08.955Z,3.40
2019-02-11T22:51:38.601Z,3.40
2019-02-11T22:54:08.294Z,3.40
2019-02-11T22:56:37.942Z,3.50
2019-02-11T22:59:07.579Z,3.50
2019-02-11T23:01:37.305Z,3.40
2019-02-11T23:04:06.973Z,3.40
2019-02-11T23:06:36.594Z,3.40
2019-02-11T23:09:12.034Z,3.40
2019-02-11T23:11:41.695Z,3.50
2019-02-11T23:14:11.798Z,3.50
2019-02-11T23:16:41.931Z,3.50
2019-02-11T23:19:11.593Z,3.50
2019-02-11T23:21:41.313Z,3.40
2019-02-11T23:24:10.962Z,3.50
2019-02-11T23:26:42.123Z,3.40
2019-02-11T23:29:12.593Z,3.40
2019-02-11T23:31:42.273Z,3.40
2019-02-11T23:34:11.905Z,3.40
2019-02-11T23:36:41.590Z,3.40
2019-02-11T23:39:17.689Z,3.40
2019-02-11T23:41:47.373Z,3.40
2019-02-11T23:44:17.031Z,3.40
2019-02-11T23:46:46.779Z,3.40
2019-02-11T23:49:16.497Z,3.40
2019-02-11T23:51:46.145Z,3.40
2019-02-11T23:54:15.786Z,3.40
2019-02-11T23:56:45.445Z,3.40
2019-02-11T23:59:15.085Z,3.40
